Athol Springs, New York
Current Conditions -  °F | °C
As of 5:54 AM on Friday 28 Nov 2014 (Local Time) from KBUF Reporting Station
Broken Clouds Broken Clouds  
Wind Chill: 10°   Ceiling: 4800
Heat Index: 22°   Visibility: 10mi
Dew Point: 13°   Wind: 13mph
Humidity: 68%   Direction: 270°W
Pressure: 30.23"   Gusts: NA
Location:  42.77°N, 78.87°W
Report Text: KBUF 281054Z 27011KT 10SM FEW040 BKN048 M06/M11 A3023 RMK AO2 SLP247 T10561106
Loading
Personal Weather Stations






























Interactive Weather Map New forecast layout! Learn more

10-Day Weather Forecast

Advertisements
Track Severe Weather on mobile